createdAt,value
2018-07-09T00:01:05.449Z,99.90
2018-07-09T00:03:33.995Z,99.90
2018-07-09T00:06:02.547Z,99.90
2018-07-09T00:08:31.072Z,99.90
2018-07-09T00:11:00.786Z,99.90
2018-07-09T00:13:30.021Z,99.90
2018-07-09T00:15:58.726Z,99.90
2018-07-09T00:18:27.273Z,99.90
2018-07-09T00:20:55.816Z,99.90
2018-07-09T00:23:24.338Z,99.90
2018-07-09T00:25:53.479Z,99.90
2018-07-09T00:28:22.546Z,99.90
2018-07-09T00:30:51.043Z,99.90
2018-07-09T00:33:20.125Z,99.90
2018-07-09T00:35:48.916Z,99.90
2018-07-09T00:38:17.971Z,99.90
2018-07-09T00:40:46.559Z,99.90
2018-07-09T00:43:15.044Z,99.90
2018-07-09T00:45:43.581Z,99.90
2018-07-09T00:48:12.094Z,99.90
2018-07-09T00:50:40.695Z,99.90
2018-07-09T00:53:09.186Z,99.90
2018-07-09T00:55:37.701Z,99.90
2018-07-09T00:58:06.394Z,99.90
2018-07-09T01:03:03.250Z,99.90
2018-07-09T01:05:31.779Z,99.90
2018-07-09T01:08:00.299Z,99.90
2018-07-09T01:10:28.793Z,99.90
2018-07-09T01:12:57.252Z,99.90
2018-07-09T01:15:25.799Z,99.90
2018-07-09T01:17:54.365Z,99.90
2018-07-09T01:20:22.996Z,99.90
2018-07-09T01:22:51.485Z,99.90
2018-07-09T01:25:19.982Z,99.90
2018-07-09T01:27:48.518Z,99.90
2018-07-09T01:30:17.121Z,99.90
2018-07-09T01:32:45.626Z,99.90
2018-07-09T01:35:14.652Z,99.90
2018-07-09T01:37:43.561Z,99.90
2018-07-09T01:40:12.173Z,99.90
2018-07-09T01:42:40.681Z,99.90
2018-07-09T01:45:09.153Z,99.90
2018-07-09T01:47:37.670Z,99.90
2018-07-09T01:50:06.170Z,99.90
2018-07-09T01:52:34.630Z,99.90
2018-07-09T01:55:03.123Z,99.90
2018-07-09T01:57:31.646Z,99.90
2018-07-09T02:00:00.127Z,99.90
2018-07-09T02:02:28.622Z,99.90
2018-07-09T02:04:57.101Z,99.90
2018-07-09T02:07:25.613Z,99.90
2018-07-09T02:09:54.079Z,99.90
2018-07-09T02:14:50.726Z,99.90
2018-07-09T02:19:47.533Z,99.90
2018-07-09T02:22:16.118Z,99.90
2018-07-09T02:24:44.642Z,99.90
2018-07-09T02:27:13.113Z,99.90
2018-07-09T02:29:41.627Z,99.90
2018-07-09T02:32:10.123Z,99.90
2018-07-09T02:34:38.636Z,99.90
2018-07-09T02:37:07.098Z,99.90
2018-07-09T02:39:35.623Z,99.90
2018-07-09T02:42:04.122Z,99.90
2018-07-09T02:44:32.618Z,99.90
2018-07-09T02:47:01.120Z,99.90
2018-07-09T02:49:29.625Z,99.90
2018-07-09T02:51:58.102Z,99.90
2018-07-09T02:54:26.623Z,99.90
2018-07-09T02:56:55.106Z,99.90
2018-07-09T02:59:23.621Z,99.90
2018-07-09T03:01:52.125Z,99.90
2018-07-09T03:04:20.627Z,99.90
2018-07-09T03:06:49.098Z,99.90
2018-07-09T03:09:17.580Z,99.90
2018-07-09T03:11:46.580Z,99.90
2018-07-09T03:14:15.086Z,99.90
2018-07-09T03:19:11.853Z,99.90
2018-07-09T03:21:40.265Z,99.90
2018-07-09T03:24:08.774Z,99.90
2018-07-09T03:26:37.303Z,99.90
2018-07-09T03:29:05.807Z,99.90
2018-07-09T03:31:34.286Z,99.90
2018-07-09T03:34:02.779Z,99.90
2018-07-09T03:36:31.286Z,99.90
2018-07-09T03:38:59.764Z,99.90
2018-07-09T03:41:28.282Z,99.90
2018-07-09T03:43:57.279Z,99.90
2018-07-09T03:46:25.862Z,99.90
2018-07-09T03:48:54.442Z,99.90
2018-07-09T03:51:22.987Z,99.90
2018-07-09T03:53:51.679Z,99.90
2018-07-09T03:56:20.417Z,99.90
2018-07-09T03:58:48.946Z,99.90
2018-07-09T04:01:17.531Z,99.90
2018-07-09T04:03:46.031Z,99.90
2018-07-09T04:06:14.621Z,99.90
2018-07-09T04:08:43.175Z,99.90
2018-07-09T04:16:08.240Z,99.90
2018-07-09T04:18:36.805Z,99.90
2018-07-09T04:21:05.390Z,99.90
2018-07-09T04:23:33.960Z,99.90
2018-07-09T04:26:02.521Z,99.90
2018-07-09T04:28:35.119Z,99.90
2018-07-09T04:31:03.626Z,99.90
2018-07-09T04:33:32.149Z,99.90
2018-07-09T04:36:00.625Z,99.90
2018-07-09T04:38:29.126Z,99.90
2018-07-09T04:40:57.707Z,99.90
2018-07-09T04:43:26.206Z,99.90
2018-07-09T04:45:54.685Z,99.90
2018-07-09T04:50:51.350Z,99.90
2018-07-09T04:53:19.875Z,99.90
2018-07-09T04:55:48.395Z,99.90
2018-07-09T04:58:16.896Z,99.90
2018-07-09T05:00:45.724Z,99.90
2018-07-09T05:03:14.329Z,99.90
2018-07-09T05:05:42.868Z,99.90
2018-07-09T05:08:11.326Z,99.90
2018-07-09T05:10:39.778Z,99.90
2018-07-09T05:13:08.275Z,99.90
2018-07-09T05:15:36.787Z,99.90
2018-07-09T05:18:05.518Z,99.90
2018-07-09T05:20:34.005Z,99.90
2018-07-09T05:23:02.517Z,99.90
2018-07-09T05:25:31.032Z,99.90
2018-07-09T05:27:59.481Z,99.90
2018-07-09T05:30:27.960Z,99.90
2018-07-09T05:32:56.441Z,99.90
2018-07-09T05:35:24.979Z,99.90
2018-07-09T05:37:53.630Z,99.90
2018-07-09T05:40:23.222Z,99.90
2018-07-09T05:42:51.747Z,99.90
2018-07-09T05:45:20.286Z,99.90
2018-07-09T05:47:48.842Z,99.90
2018-07-09T05:52:45.561Z,99.90
2018-07-09T05:55:14.131Z,99.90
2018-07-09T05:57:42.654Z,99.90
2018-07-09T06:00:11.187Z,99.90
2018-07-09T06:02:39.706Z,99.90
2018-07-09T06:05:08.329Z,99.90
2018-07-09T06:07:36.910Z,99.90
2018-07-09T06:10:05.489Z,99.90
2018-07-09T06:12:33.962Z,99.90
2018-07-09T06:15:02.485Z,99.90
2018-07-09T06:17:30.965Z,99.90
2018-07-09T06:19:59.546Z,99.90
2018-07-09T06:22:28.070Z,99.90
2018-07-09T06:24:56.584Z,99.90
2018-07-09T06:27:25.099Z,99.90
2018-07-09T06:29:53.574Z,99.90
2018-07-09T06:32:22.105Z,99.90
2018-07-09T06:37:18.773Z,99.90
2018-07-09T06:39:47.315Z,99.90
2018-07-09T06:42:15.910Z,99.90
2018-07-09T06:44:44.534Z,99.90
2018-07-09T06:47:13.076Z,99.90
2018-07-09T06:49:41.577Z,99.90
2018-07-09T06:52:10.138Z,99.90
2018-07-09T06:54:38.621Z,99.90
2018-07-09T06:57:07.170Z,99.90
2018-07-09T06:59:35.638Z,99.90
2018-07-09T07:02:04.185Z,99.90
2018-07-09T07:04:32.652Z,99.90
2018-07-09T07:07:01.177Z,99.90
2018-07-09T07:09:29.674Z,99.90
2018-07-09T07:11:58.183Z,99.90
2018-07-09T07:14:26.693Z,99.90
2018-07-09T07:16:55.203Z,99.90
2018-07-09T07:19:23.781Z,99.90
2018-07-09T07:21:52.266Z,99.90
2018-07-09T07:24:21.448Z,99.90
2018-07-09T07:26:49.903Z,99.90
2018-07-09T07:29:18.471Z,99.90
2018-07-09T07:31:47.025Z,99.90
2018-07-09T07:34:19.634Z,99.90
2018-07-09T07:36:48.178Z,99.90
2018-07-09T07:39:16.669Z,99.90
2018-07-09T07:41:45.570Z,99.90
2018-07-09T07:44:14.192Z,99.90
2018-07-09T07:46:43.782Z,99.90
2018-07-09T07:49:12.378Z,99.90
2018-07-09T07:51:40.904Z,99.90
2018-07-09T07:54:12.638Z,99.90
2018-07-09T07:56:42.023Z,99.60
2018-07-09T07:59:25.811Z,99.90
2018-07-09T08:01:54.610Z,99.40
2018-07-09T08:04:23.496Z,98.00
2018-07-09T08:06:51.991Z,97.80
2018-07-09T08:09:20.693Z,98.40
2018-07-09T08:11:49.307Z,98.70
2018-07-09T08:14:17.678Z,98.20
2018-07-09T08:16:46.193Z,97.60
2018-07-09T08:19:14.768Z,98.00
2018-07-09T08:21:43.322Z,97.20
2018-07-09T08:24:11.804Z,96.90
2018-07-09T08:26:40.343Z,97.40
2018-07-09T08:29:08.799Z,98.40
2018-07-09T08:31:37.315Z,96.10
2018-07-09T08:34:05.871Z,95.90
2018-07-09T08:36:34.414Z,96.40
2018-07-09T08:39:02.926Z,96.80
2018-07-09T08:41:31.720Z,96.30
2018-07-09T08:44:00.213Z,94.90
2018-07-09T08:46:28.745Z,95.90
2018-07-09T08:48:57.178Z,95.40
2018-07-09T08:51:25.714Z,94.10
2018-07-09T08:53:55.008Z,95.10
2018-07-09T08:56:23.659Z,94.00
2018-07-09T08:58:52.186Z,93.70
2018-07-09T09:01:20.704Z,94.40
2018-07-09T09:06:47.430Z,94.00
2018-07-09T09:09:16.750Z,92.50
2018-07-09T09:11:45.263Z,92.00
2018-07-09T09:16:42.000Z,92.30
2018-07-09T09:19:10.581Z,90.30
2018-07-09T09:21:39.134Z,92.30
2018-07-09T09:24:07.718Z,91.30
2018-07-09T09:26:36.462Z,91.30
2018-07-09T09:34:01.278Z,89.00
2018-07-09T09:36:29.742Z,88.10
2018-07-09T09:38:58.252Z,88.20
2018-07-09T09:43:55.092Z,86.70
2018-07-09T09:46:23.686Z,84.60
2018-07-09T09:51:21.398Z,84.80
2018-07-09T09:53:49.957Z,85.20
2018-07-09T09:58:46.748Z,79.60
2018-07-09T10:01:15.271Z,84.30
2018-07-09T10:03:43.808Z,84.50
2018-07-09T10:06:12.319Z,77.50
2018-07-09T10:08:40.754Z,78.50
2018-07-09T10:11:09.218Z,72.30
2018-07-09T10:13:37.637Z,75.60
2018-07-09T10:16:06.415Z,75.30
2018-07-09T10:18:34.869Z,73.20
2018-07-09T10:21:03.421Z,68.90
2018-07-09T10:23:31.926Z,70.20
2018-07-09T10:26:00.349Z,74.50
2018-07-09T10:28:28.790Z,69.70
2018-07-09T10:30:57.825Z,67.70
2018-07-09T10:33:26.398Z,64.40
2018-07-09T10:35:54.859Z,62.00
2018-07-09T10:38:23.361Z,65.30
2018-07-09T10:40:51.845Z,64.60
2018-07-09T10:43:20.886Z,66.00
2018-07-09T10:45:50.087Z,62.20
2018-07-09T10:48:18.673Z,63.50
2018-07-09T10:50:49.201Z,60.60
2018-07-09T10:53:17.709Z,58.70
2018-07-09T10:55:46.243Z,61.60
2018-07-09T10:58:14.663Z,60.10
2018-07-09T11:00:43.173Z,58.50
2018-07-09T11:03:11.605Z,57.20
2018-07-09T11:05:40.063Z,53.20
2018-07-09T11:08:08.537Z,56.10
2018-07-09T11:10:36.998Z,57.00
2018-07-09T11:13:05.507Z,53.00
2018-07-09T11:15:33.960Z,53.90
2018-07-09T11:18:02.424Z,52.30
2018-07-09T11:20:30.922Z,51.20
2018-07-09T11:22:59.429Z,51.60
2018-07-09T11:27:56.109Z,55.90
2018-07-09T11:30:24.667Z,56.10
2018-07-09T11:32:54.001Z,54.40
2018-07-09T11:35:22.559Z,57.60
2018-07-09T11:40:19.197Z,60.20
2018-07-09T11:42:47.723Z,63.20
2018-07-09T11:45:16.297Z,61.10
2018-07-09T11:47:44.814Z,57.20
2018-07-09T11:50:13.326Z,54.60
2018-07-09T11:52:41.842Z,52.80
2018-07-09T11:55:10.329Z,53.40
2018-07-09T11:57:38.809Z,55.50
2018-07-09T12:00:08.189Z,51.70
2018-07-09T12:07:33.053Z,50.80
2018-07-09T12:10:01.525Z,50.70
2018-07-09T12:12:30.101Z,51.40
2018-07-09T12:14:58.578Z,52.30
2018-07-09T12:17:27.081Z,51.70
2018-07-09T12:19:55.623Z,52.80
2018-07-09T12:22:24.090Z,51.40
2018-07-09T12:24:52.536Z,51.90
2018-07-09T12:27:24.277Z,54.70
2018-07-09T12:29:52.754Z,54.20
2018-07-09T12:32:21.198Z,49.70
2018-07-09T12:37:17.809Z,49.20
2018-07-09T12:39:46.259Z,50.50
2018-07-09T12:42:14.694Z,48.50
2018-07-09T12:44:43.226Z,47.60
2018-07-09T12:47:11.659Z,47.80
2018-07-09T12:49:40.146Z,47.00
2018-07-09T12:52:08.620Z,46.20
2018-07-09T12:54:37.077Z,45.30
2018-07-09T12:57:05.552Z,45.10
2018-07-09T12:59:34.034Z,45.80
2018-07-09T13:02:02.494Z,41.70
2018-07-09T13:04:31.006Z,42.40
2018-07-09T13:06:59.502Z,42.50
2018-07-09T13:09:27.977Z,43.10
2018-07-09T13:11:56.622Z,43.60
2018-07-09T13:14:25.168Z,41.50
2018-07-09T13:16:53.581Z,40.50
2018-07-09T13:19:22.037Z,41.40
2018-07-09T13:21:50.536Z,42.90
2018-07-09T13:24:18.978Z,43.60
2018-07-09T13:29:15.545Z,43.00
2018-07-09T13:31:44.058Z,42.50
2018-07-09T13:34:12.507Z,42.50
2018-07-09T13:36:40.994Z,42.30
2018-07-09T13:39:09.441Z,40.00
2018-07-09T13:41:37.886Z,39.50
2018-07-09T13:44:06.324Z,41.40
2018-07-09T13:46:35.080Z,41.00
2018-07-09T13:49:03.585Z,41.20
2018-07-09T13:51:32.097Z,43.70
2018-07-09T13:54:00.602Z,39.20
2018-07-09T13:56:29.364Z,37.90
2018-07-09T13:58:58.075Z,36.40
2018-07-09T14:01:26.578Z,37.10
2018-07-09T14:03:55.007Z,35.70
2018-07-09T14:06:23.454Z,35.50
2018-07-09T14:08:51.890Z,36.80
2018-07-09T14:11:20.348Z,39.40
2018-07-09T14:13:48.761Z,42.30
2018-07-09T14:16:17.197Z,41.90
2018-07-09T14:18:45.671Z,42.70
2018-07-09T14:21:14.121Z,44.10
2018-07-09T14:23:42.545Z,45.00
2018-07-09T14:26:10.981Z,46.70
2018-07-09T14:31:07.586Z,43.40
2018-07-09T14:33:36.033Z,44.90
2018-07-09T14:36:04.513Z,45.50
2018-07-09T14:38:32.969Z,47.00
2018-07-09T14:41:01.410Z,47.30
2018-07-09T14:43:29.833Z,47.30
2018-07-09T14:48:26.386Z,48.30
2018-07-09T14:53:23.002Z,45.00
2018-07-09T14:55:51.416Z,44.90
2018-07-09T15:00:47.992Z,44.00
2018-07-09T15:03:16.451Z,42.30
2018-07-09T15:05:44.887Z,40.00
2018-07-09T15:08:13.365Z,41.60
2018-07-09T15:10:41.806Z,44.60
2018-07-09T15:15:38.363Z,47.40
2018-07-09T15:18:06.801Z,49.90
2018-07-09T15:20:35.295Z,49.20
2018-07-09T15:23:03.737Z,47.90
2018-07-09T15:25:32.203Z,48.70
2018-07-09T15:28:00.621Z,47.00
2018-07-09T15:30:30.869Z,46.70
2018-07-09T15:32:59.578Z,45.60
2018-07-09T15:35:28.022Z,48.30
2018-07-09T15:37:56.451Z,50.10
2018-07-09T15:40:24.904Z,47.30
2018-07-09T15:42:53.325Z,46.40
2018-07-09T15:45:21.796Z,47.10
2018-07-09T15:47:50.303Z,45.10
2018-07-09T15:50:18.770Z,46.70
2018-07-09T15:52:47.206Z,49.50
2018-07-09T15:55:15.706Z,51.00
2018-07-09T15:57:44.109Z,52.30
2018-07-09T16:00:12.591Z,53.90
2018-07-09T16:02:41.061Z,54.40
2018-07-09T16:05:09.489Z,55.60
2018-07-09T16:07:37.960Z,56.50
2018-07-09T16:12:34.526Z,56.40
2018-07-09T16:15:03.006Z,57.60
2018-07-09T16:17:31.436Z,59.00
2018-07-09T16:19:59.906Z,59.50
2018-07-09T16:22:28.369Z,59.60
2018-07-09T16:24:56.798Z,58.80
2018-07-09T16:27:25.274Z,59.80
2018-07-09T16:29:53.739Z,59.60
2018-07-09T16:32:22.173Z,59.30
2018-07-09T16:34:50.609Z,59.00
2018-07-09T16:37:19.230Z,58.30
2018-07-09T16:39:47.710Z,59.00
2018-07-09T16:42:16.199Z,61.20
2018-07-09T16:47:12.784Z,59.60
2018-07-09T16:49:41.245Z,60.00
2018-07-09T16:52:09.729Z,60.30
2018-07-09T16:54:38.207Z,62.50
2018-07-09T16:57:06.691Z,61.10
2018-07-09T16:59:35.175Z,64.60
2018-07-09T17:02:03.606Z,63.90
2018-07-09T17:04:32.036Z,66.60
2018-07-09T17:07:00.666Z,66.00
2018-07-09T17:09:29.153Z,64.10
2018-07-09T17:11:57.561Z,66.80
2018-07-09T17:14:26.062Z,67.00
2018-07-09T17:16:54.517Z,67.00
2018-07-09T17:19:23.022Z,68.80
2018-07-09T17:21:51.501Z,69.60
2018-07-09T17:24:19.962Z,69.10
2018-07-09T17:26:48.521Z,67.70
2018-07-09T17:29:16.952Z,73.50
2018-07-09T17:31:45.452Z,72.80
2018-07-09T17:34:13.910Z,68.20
2018-07-09T17:36:42.378Z,71.00
2018-07-09T17:39:10.876Z,73.30
2018-07-09T17:41:39.306Z,74.00
2018-07-09T17:44:07.844Z,74.60
2018-07-09T17:46:36.257Z,74.30
2018-07-09T17:49:04.750Z,75.50
2018-07-09T17:51:33.221Z,76.60
2018-07-09T17:54:01.691Z,76.50
2018-07-09T17:56:30.138Z,75.80
2018-07-09T17:58:58.623Z,77.10
2018-07-09T18:01:27.083Z,76.50
2018-07-09T18:03:55.540Z,77.00
2018-07-09T18:06:23.997Z,77.70
2018-07-09T18:11:20.661Z,80.90
2018-07-09T18:13:49.143Z,81.80
2018-07-09T18:16:17.589Z,80.80
2018-07-09T18:18:46.070Z,81.00
2018-07-09T18:21:14.571Z,82.10
2018-07-09T18:23:42.971Z,81.10
2018-07-09T18:26:11.409Z,84.10
2018-07-09T18:28:39.894Z,83.00
2018-07-09T18:31:08.319Z,84.60
2018-07-09T18:33:36.897Z,86.70
2018-07-09T18:36:05.643Z,87.80
2018-07-09T18:38:34.140Z,89.90
2018-07-09T18:41:02.549Z,88.80
2018-07-09T18:43:31.315Z,90.20
2018-07-09T18:48:27.949Z,91.50
2018-07-09T18:50:56.541Z,91.90
2018-07-09T18:55:53.191Z,92.20
2018-07-09T18:58:23.305Z,93.00
2018-07-09T19:00:51.811Z,93.60
2018-07-09T19:03:20.295Z,94.00
2018-07-09T19:06:16.880Z,94.40
2018-07-09T19:08:45.381Z,94.80
2018-07-09T19:11:13.895Z,95.10
2018-07-09T19:13:42.447Z,95.50
2018-07-09T19:16:10.961Z,96.00
2018-07-09T19:19:51.989Z,96.30
2018-07-09T19:22:28.269Z,96.80
2018-07-09T19:24:55.577Z,97.40
2018-07-09T19:27:22.901Z,97.80
2018-07-09T19:29:50.218Z,98.30
2018-07-09T19:32:17.578Z,98.60
2018-07-09T19:34:44.975Z,99.00
2018-07-09T19:37:12.358Z,98.90
2018-07-09T19:39:39.588Z,99.20
2018-07-09T19:42:06.917Z,99.30
2018-07-09T19:44:34.285Z,99.60
2018-07-09T19:47:01.604Z,99.90
2018-07-09T19:49:28.950Z,99.90
2018-07-09T19:51:56.270Z,99.90
2018-07-09T19:54:23.612Z,99.90
2018-07-09T19:56:50.940Z,99.90
2018-07-09T19:59:19.945Z,99.90
2018-07-09T20:01:47.344Z,99.90
2018-07-09T20:04:14.698Z,99.90
2018-07-09T20:06:42.015Z,99.90
2018-07-09T20:09:14.718Z,99.90
2018-07-09T20:11:47.400Z,99.90
2018-07-09T20:14:19.987Z,99.90
2018-07-09T20:16:52.513Z,99.90
2018-07-09T20:21:48.273Z,99.90
2018-07-09T20:24:15.597Z,99.90
2018-07-09T20:26:42.899Z,99.90
2018-07-09T20:29:10.239Z,99.90
2018-07-09T20:31:37.566Z,99.90
2018-07-09T20:34:04.917Z,99.90
2018-07-09T20:36:32.241Z,99.90
2018-07-09T20:38:59.598Z,99.90
2018-07-09T20:41:26.920Z,99.90
2018-07-09T20:43:54.264Z,99.90
2018-07-09T20:46:21.710Z,99.90
2018-07-09T20:48:49.028Z,99.90
2018-07-09T20:51:16.378Z,99.90
2018-07-09T20:53:43.787Z,99.90
2018-07-09T20:56:11.140Z,99.90
2018-07-09T20:58:38.553Z,99.90
2018-07-09T21:01:06.074Z,99.90
2018-07-09T21:03:33.377Z,99.90
2018-07-09T21:06:00.739Z,99.90
2018-07-09T21:08:28.065Z,99.90
2018-07-09T21:13:22.981Z,99.90
2018-07-09T21:15:50.429Z,99.90
2018-07-09T21:18:17.685Z,99.90
2018-07-09T21:23:12.605Z,99.90
2018-07-09T21:25:39.921Z,99.90
2018-07-09T21:28:07.265Z,99.90
2018-07-09T21:30:34.595Z,99.90
2018-07-09T21:33:01.942Z,99.90
2018-07-09T21:35:29.246Z,99.90
2018-07-09T21:37:56.728Z,99.90
2018-07-09T21:40:23.905Z,99.90
2018-07-09T21:42:51.262Z,99.90
2018-07-09T21:45:18.565Z,99.90
2018-07-09T21:47:45.909Z,99.90
2018-07-09T21:50:13.222Z,99.90
2018-07-09T21:52:40.566Z,99.90
2018-07-09T21:55:07.878Z,99.90
2018-07-09T21:57:35.207Z,99.90
2018-07-09T22:00:02.520Z,99.90
2018-07-09T22:02:29.906Z,99.90
2018-07-09T22:04:57.177Z,99.90
2018-07-09T22:07:24.535Z,99.90
2018-07-09T22:09:51.861Z,99.90
2018-07-09T22:12:19.208Z,99.90
2018-07-09T22:14:46.543Z,99.90
2018-07-09T22:17:13.898Z,99.90
2018-07-09T22:19:41.261Z,99.90
2018-07-09T22:22:08.588Z,99.90
2018-07-09T22:24:35.933Z,99.90
2018-07-09T22:29:30.850Z,99.90
2018-07-09T22:34:27.425Z,99.90
2018-07-09T22:36:55.829Z,99.90
2018-07-09T22:39:24.273Z,99.90
2018-07-09T22:41:52.698Z,99.90
2018-07-09T22:44:22.170Z,99.90
2018-07-09T22:46:50.656Z,99.90
2018-07-09T22:49:19.101Z,99.90
2018-07-09T22:54:16.255Z,99.90
2018-07-09T22:56:44.681Z,99.90
2018-07-09T22:59:13.140Z,99.90
2018-07-09T23:01:41.551Z,99.90
2018-07-09T23:04:10.031Z,99.90
2018-07-09T23:06:38.470Z,99.90
2018-07-09T23:11:29.330Z,99.90
2018-07-09T23:16:44.596Z,99.90
2018-07-09T23:19:24.980Z,99.90
2018-07-09T23:22:04.637Z,99.90
2018-07-09T23:24:31.973Z,99.90
2018-07-09T23:26:59.372Z,99.90
2018-07-09T23:29:26.677Z,99.90
2018-07-09T23:31:54.034Z,99.90
2018-07-09T23:34:21.344Z,99.90
2018-07-09T23:36:48.682Z,99.90
2018-07-09T23:39:15.985Z,99.90
2018-07-09T23:41:43.321Z,99.90
2018-07-09T23:44:10.630Z,99.90
2018-07-09T23:46:37.957Z,99.90
2018-07-09T23:49:05.269Z,99.90
2018-07-09T23:54:00.197Z,99.90
2018-07-09T23:59:42.318Z,99.90
